Howardton, Illinois
Current Conditions -  °F | °C
As of 3:52 PM on Wednesday 26 Nov 2014 (Local Time) from KMDH Reporting Station
Light Snow Light Snow  
Wind Chill: 33°   Ceiling: 600
Heat Index: 33°   Visibility: 1mi
Dew Point: 31°   Wind: 0mph
Humidity: 92%   Direction: NA
Pressure: 30.02"   Gusts: NA
Location:  37.6428°N, 89.4674°W
Report Text: KMDH 262152Z AUTO 00000KT 1SM -SN BR OVC006 01/M01 A3002 RMK AO2 RAE14SNB14 SLP171 P0007 T00061006
Loading
Personal Weather Stations






























Interactive Weather Map New forecast layout! Learn more

10-Day Weather Forecast

Advertisements
Track Severe Weather on mobile